createdAt,value
2022-10-05T00:02:19.182Z,4.55
2022-10-05T00:04:47.550Z,4.62
2022-10-05T00:07:16.800Z,4.56
2022-10-05T00:09:45.813Z,4.56
2022-10-05T00:12:17.980Z,4.58
2022-10-05T00:14:46.260Z,4.63
2022-10-05T00:17:28.377Z,4.66
2022-10-05T00:19:55.431Z,4.78
2022-10-05T00:22:24.745Z,4.83
2022-10-05T00:24:56.583Z,5.00
2022-10-05T00:27:25.915Z,5.04
2022-10-05T00:29:57.663Z,5.04
2022-10-05T00:32:24.035Z,5.04
2022-10-05T00:34:50.379Z,5.13
2022-10-05T00:37:17.205Z,5.15
2022-10-05T00:39:43.979Z,5.19
2022-10-05T00:42:48.483Z,5.31
2022-10-05T00:45:31.266Z,5.34
2022-10-05T00:47:57.945Z,5.39
2022-10-05T00:50:33.357Z,5.35
2022-10-05T00:53:21.795Z,5.27
2022-10-05T00:56:01.941Z,5.32
2022-10-05T00:58:40.279Z,5.27
2022-10-05T01:01:12.544Z,5.32
2022-10-05T01:04:03.978Z,5.44
2022-10-05T01:06:51.495Z,5.56
2022-10-05T01:09:53.683Z,5.84
2022-10-05T01:12:26.607Z,5.94
2022-10-05T01:15:04.306Z,6.36
2022-10-05T01:17:39.872Z,6.49
2022-10-05T01:20:39.722Z,6.44
2022-10-05T01:23:31.021Z,5.97
2022-10-05T01:26:00.799Z,6.05
2022-10-05T01:28:47.983Z,5.91
2022-10-05T01:31:31.986Z,5.97
2022-10-05T01:34:11.473Z,6.13
2022-10-05T01:36:57.615Z,6.14
2022-10-05T01:39:37.596Z,6.33
2022-10-05T01:42:30.546Z,6.73
2022-10-05T01:44:59.535Z,6.82
2022-10-05T01:47:45.239Z,6.76
2022-10-05T01:50:17.423Z,6.67
2022-10-05T01:53:02.132Z,6.60
2022-10-05T01:55:50.288Z,6.62
2022-10-05T01:58:26.127Z,6.57
2022-10-05T02:01:04.055Z,6.53
2022-10-05T02:03:40.344Z,6.56
2022-10-05T02:06:26.250Z,6.72
2022-10-05T02:08:59.288Z,6.57
2022-10-05T02:11:26.328Z,6.53
2022-10-05T02:13:57.146Z,6.53
2022-10-05T02:16:31.387Z,6.57
2022-10-05T02:19:03.328Z,6.60
2022-10-05T02:21:33.878Z,6.62
2022-10-05T02:24:07.472Z,6.57
2022-10-05T02:26:37.246Z,6.57
2022-10-05T02:29:09.467Z,6.78
2022-10-05T02:32:00.875Z,6.62
2022-10-05T02:34:40.486Z,6.58
2022-10-05T02:37:36.405Z,6.55
2022-10-05T02:40:39.840Z,6.53
2022-10-05T02:43:16.791Z,6.44
2022-10-05T02:45:43.134Z,6.30
2022-10-05T02:48:29.643Z,6.32
2022-10-05T02:51:10.202Z,6.26
2022-10-05T02:53:54.958Z,6.26
2022-10-05T02:56:48.751Z,6.17
2022-10-05T02:59:26.612Z,6.08
2022-10-05T03:02:01.600Z,6.26
2022-10-05T03:04:34.601Z,6.49
2022-10-05T03:07:23.399Z,6.48
2022-10-05T03:10:01.377Z,6.49
2022-10-05T03:13:13.280Z,6.47
2022-10-05T03:16:06.672Z,6.30
2022-10-05T03:18:42.272Z,6.35
2022-10-05T03:21:47.947Z,6.33
2022-10-05T03:24:35.532Z,6.27
2022-10-05T03:27:42.585Z,6.26
2022-10-05T03:30:26.372Z,6.40
2022-10-05T03:33:02.093Z,6.31
2022-10-05T03:35:59.411Z,6.31
2022-10-05T03:38:31.210Z,6.31
2022-10-05T03:41:06.568Z,6.38
2022-10-05T03:44:08.548Z,6.36
2022-10-05T03:46:51.636Z,6.47
2022-10-05T03:49:24.019Z,6.60
2022-10-05T03:52:16.613Z,6.85
2022-10-05T03:54:49.526Z,6.76
2022-10-05T03:57:20.917Z,6.90
2022-10-05T04:00:18.158Z,7.07
2022-10-05T04:03:03.486Z,7.14
2022-10-05T04:05:35.662Z,7.16
2022-10-05T04:08:12.420Z,7.23
2022-10-05T04:10:50.686Z,6.97
2022-10-05T04:13:31.431Z,6.59
2022-10-05T04:16:06.199Z,6.59
2022-10-05T04:18:36.662Z,6.44
2022-10-05T04:21:13.709Z,6.48
2022-10-05T04:23:48.227Z,6.43
2022-10-05T04:26:24.951Z,6.34
2022-10-05T04:29:05.172Z,6.18
2022-10-05T04:31:41.788Z,6.29
2022-10-05T04:34:53.450Z,6.39
2022-10-05T04:37:33.347Z,6.35
2022-10-05T04:40:16.371Z,6.42
2022-10-05T04:42:51.986Z,6.52
2022-10-05T04:45:41.079Z,6.43
2022-10-05T04:48:44.923Z,6.47
2022-10-05T04:51:34.521Z,6.51
2022-10-05T04:54:27.645Z,6.39
2022-10-05T04:56:59.768Z,6.39
2022-10-05T04:59:50.895Z,6.36
2022-10-05T05:02:44.513Z,6.37
2022-10-05T05:05:31.891Z,6.42
2022-10-05T05:08:27.857Z,6.40
2022-10-05T05:11:19.033Z,6.43
2022-10-05T05:14:05.987Z,6.36
2022-10-05T05:16:39.576Z,6.36
2022-10-05T05:19:08.904Z,6.30
2022-10-05T05:21:52.830Z,6.30
2022-10-05T05:24:40.999Z,6.30
2022-10-05T05:27:32.358Z,6.24
2022-10-05T05:30:34.239Z,6.34
2022-10-05T05:33:09.682Z,6.26
2022-10-05T05:35:43.878Z,6.34
2022-10-05T05:38:35.256Z,6.48
2022-10-05T05:41:14.337Z,6.50
2022-10-05T05:44:01.863Z,6.48
2022-10-05T05:47:02.841Z,6.44
2022-10-05T05:49:45.971Z,6.48
2022-10-05T05:52:32.167Z,6.54
2022-10-05T05:55:05.335Z,6.53
2022-10-05T05:57:43.228Z,6.70
2022-10-05T06:00:31.677Z,6.86
2022-10-05T06:02:58.172Z,6.45
2022-10-05T06:05:53.580Z,6.38
2022-10-05T06:08:40.427Z,6.47
2022-10-05T06:11:24.304Z,6.56
2022-10-05T06:13:51.251Z,6.63
2022-10-05T06:16:31.843Z,6.89
2022-10-05T06:19:14.264Z,6.88
2022-10-05T06:22:02.241Z,6.71
2022-10-05T06:24:36.658Z,6.76
2022-10-05T06:27:25.465Z,6.72
2022-10-05T06:30:05.126Z,6.78
2022-10-05T06:32:37.503Z,6.75
2022-10-05T06:35:08.290Z,6.89
2022-10-05T06:38:10.141Z,6.89
2022-10-05T06:40:51.320Z,6.65
2022-10-05T06:43:26.082Z,6.71
2022-10-05T06:46:10.938Z,6.80
2022-10-05T06:48:49.431Z,6.78
2022-10-05T06:51:26.844Z,6.66
2022-10-05T06:54:04.070Z,6.70
2022-10-05T06:56:45.975Z,6.87
2022-10-05T06:59:30.333Z,6.94
2022-10-05T07:02:28.380Z,7.06
2022-10-05T07:05:13.044Z,6.87
2022-10-05T07:07:58.064Z,7.02
2022-10-05T07:10:30.131Z,7.24
2022-10-05T07:13:09.111Z,7.32
2022-10-05T07:15:48.220Z,7.07
2022-10-05T07:18:33.916Z,6.87
2022-10-05T07:21:06.184Z,6.90
2022-10-05T07:23:45.021Z,7.18
2022-10-05T07:26:33.807Z,6.81
2022-10-05T07:29:16.583Z,7.09
2022-10-05T07:31:51.351Z,7.29
2022-10-05T07:34:20.408Z,7.56
2022-10-05T07:37:19.277Z,7.98
2022-10-05T07:40:10.461Z,7.52
2022-10-05T07:42:52.004Z,7.48
2022-10-05T07:45:42.898Z,7.89
2022-10-05T07:48:17.440Z,7.85
2022-10-05T07:50:58.925Z,7.60
2022-10-05T07:54:00.274Z,7.52
2022-10-05T07:56:37.437Z,7.52
2022-10-05T07:59:07.761Z,8.02
2022-10-05T08:01:44.638Z,8.22
2022-10-05T08:04:27.763Z,7.96
2022-10-05T08:07:07.114Z,8.01
2022-10-05T08:09:42.379Z,8.49
2022-10-05T08:12:24.719Z,8.44
2022-10-05T08:15:09.925Z,8.51
2022-10-05T08:17:39.496Z,9.14
2022-10-05T08:20:33.619Z,9.16
2022-10-05T08:23:16.123Z,9.21
2022-10-05T08:26:03.540Z,9.21
2022-10-05T08:29:12.847Z,8.98
2022-10-05T08:31:43.398Z,8.96
2022-10-05T08:34:27.753Z,9.15
2022-10-05T08:37:03.468Z,9.42
2022-10-05T08:39:37.466Z,9.83
2022-10-05T08:42:44.657Z,9.67
2022-10-05T08:45:58.362Z,10.02
2022-10-05T08:48:38.448Z,10.07
2022-10-05T08:51:18.287Z,9.93
2022-10-05T08:54:05.716Z,10.19
2022-10-05T08:56:35.747Z,10.84
2022-10-05T08:59:24.055Z,12.21
2022-10-05T09:02:15.035Z,12.51
2022-10-05T09:05:00.349Z,14.03
2022-10-05T09:07:59.160Z,13.75
2022-10-05T09:10:50.246Z,15.85
2022-10-05T09:13:25.672Z,15.57
2022-10-05T09:16:30.403Z,17.13
2022-10-05T09:19:15.558Z,14.67
2022-10-05T09:21:43.644Z,14.84
2022-10-05T09:24:13.139Z,14.52
2022-10-05T09:27:02.459Z,14.20
2022-10-05T09:29:31.797Z,13.82
2022-10-05T09:32:24.103Z,14.35
2022-10-05T09:35:13.428Z,15.18
2022-10-05T09:38:17.321Z,14.94
2022-10-05T09:40:59.923Z,15.27
2022-10-05T09:43:34.996Z,15.40
2022-10-05T09:46:32.714Z,15.91
2022-10-05T09:48:59.059Z,15.68
2022-10-05T09:51:28.372Z,15.91
2022-10-05T09:54:24.147Z,15.71
2022-10-05T09:57:15.173Z,16.23
2022-10-05T10:00:09.352Z,15.81
2022-10-05T10:03:12.799Z,16.50
2022-10-05T10:06:03.428Z,16.10
2022-10-05T10:08:46.760Z,16.33
2022-10-05T10:11:26.413Z,17.01
2022-10-05T10:14:11.662Z,17.52
2022-10-05T10:16:58.204Z,16.99
2022-10-05T10:19:57.657Z,16.81
2022-10-05T10:22:46.081Z,17.50
2022-10-05T10:25:52.550Z,17.79
2022-10-05T10:28:34.655Z,16.92
2022-10-05T10:31:19.992Z,17.36
2022-10-05T10:33:53.903Z,17.54
2022-10-05T10:36:46.693Z,16.69
2022-10-05T10:39:38.922Z,17.55
2022-10-05T10:42:36.797Z,17.82
2022-10-05T10:45:19.597Z,17.71
2022-10-05T10:48:00.219Z,18.41
2022-10-05T10:50:50.047Z,17.35
2022-10-05T10:53:41.642Z,17.44
2022-10-05T10:56:29.524Z,17.80
2022-10-05T10:59:17.302Z,17.17
2022-10-05T11:02:21.235Z,17.57
2022-10-05T11:05:06.075Z,17.30
2022-10-05T11:07:45.244Z,17.33
2022-10-05T11:10:20.719Z,18.17
2022-10-05T11:13:01.895Z,18.42
2022-10-05T11:15:47.054Z,18.95
2022-10-05T11:18:24.714Z,19.49
2022-10-05T11:21:20.388Z,18.92
2022-10-05T11:23:56.284Z,19.21
2022-10-05T11:26:57.845Z,19.25
2022-10-05T11:30:09.211Z,19.32
2022-10-05T11:32:44.473Z,19.31
2022-10-05T11:35:50.130Z,19.27
2022-10-05T11:38:46.160Z,19.12
2022-10-05T11:41:34.040Z,19.24
2022-10-05T11:44:39.320Z,18.72
2022-10-05T11:47:18.972Z,18.51
2022-10-05T11:49:57.379Z,18.25
2022-10-05T11:52:31.162Z,18.14
2022-10-05T11:55:11.821Z,18.66
2022-10-05T11:57:54.094Z,18.42
2022-10-05T12:00:24.190Z,18.79
2022-10-05T12:03:15.749Z,18.23
2022-10-05T12:06:08.710Z,18.68
2022-10-05T12:08:43.056Z,18.39
2022-10-05T12:11:46.290Z,18.41
2022-10-05T12:14:35.355Z,18.60
2022-10-05T12:17:14.965Z,19.15
2022-10-05T12:19:46.460Z,19.04
2022-10-05T12:22:33.714Z,19.19
2022-10-05T12:25:25.968Z,19.12
2022-10-05T12:27:56.674Z,19.02
2022-10-05T12:30:54.872Z,19.29
2022-10-05T12:33:38.362Z,19.19
2022-10-05T12:36:24.719Z,19.25
2022-10-05T12:38:56.916Z,19.25
2022-10-05T12:41:40.336Z,19.54
2022-10-05T12:44:45.115Z,19.47
2022-10-05T12:47:30.571Z,19.23
2022-10-05T12:50:09.096Z,19.22
2022-10-05T12:52:54.152Z,19.48
2022-10-05T12:55:21.659Z,19.58
2022-10-05T12:58:30.179Z,19.69
2022-10-05T13:01:23.167Z,19.54
2022-10-05T13:04:01.779Z,19.61
2022-10-05T13:06:43.735Z,19.77
2022-10-05T13:09:33.144Z,19.80
2022-10-05T13:12:07.276Z,19.61
2022-10-05T13:14:55.542Z,19.43
2022-10-05T13:17:26.494Z,19.49
2022-10-05T13:19:58.409Z,19.91
2022-10-05T13:22:35.988Z,20.13
2022-10-05T13:25:17.278Z,19.92
2022-10-05T13:28:05.756Z,20.29
2022-10-05T13:30:32.909Z,20.17
2022-10-05T13:33:14.965Z,20.27
2022-10-05T13:35:47.940Z,20.14
2022-10-05T13:38:46.799Z,20.24
2022-10-05T13:41:49.868Z,20.28
2022-10-05T13:44:39.094Z,20.02
2022-10-05T13:47:12.869Z,20.11
2022-10-05T13:49:51.271Z,20.24
2022-10-05T13:52:33.886Z,20.01
2022-10-05T13:55:12.828Z,20.33
2022-10-05T13:57:47.113Z,20.21
2022-10-05T14:00:26.942Z,20.01
2022-10-05T14:02:56.647Z,20.16
2022-10-05T14:05:32.994Z,20.21
2022-10-05T14:08:02.050Z,20.32
2022-10-05T14:10:38.999Z,20.39
2022-10-05T14:13:23.159Z,20.28
2022-10-05T14:15:59.377Z,20.08
2022-10-05T14:18:28.529Z,20.17
2022-10-05T14:21:13.892Z,19.99
2022-10-05T14:23:40.933Z,20.11
2022-10-05T14:26:37.739Z,20.24
2022-10-05T14:29:18.052Z,20.34
2022-10-05T14:32:14.716Z,20.50
2022-10-05T14:34:56.425Z,20.46
2022-10-05T14:37:25.974Z,20.25
2022-10-05T14:39:57.853Z,20.39
2022-10-05T14:42:28.502Z,20.20
2022-10-05T14:45:23.915Z,20.42
2022-10-05T14:48:06.093Z,20.46
2022-10-05T14:50:33.274Z,20.13
2022-10-05T14:53:12.102Z,20.15
2022-10-05T14:56:26.786Z,20.16
2022-10-05T14:59:23.398Z,19.90
2022-10-05T15:02:20.488Z,19.81
2022-10-05T15:05:00.753Z,19.65
2022-10-05T15:07:40.899Z,19.81
2022-10-05T15:10:29.800Z,19.97
2022-10-05T15:13:09.199Z,20.01
2022-10-05T15:16:03.584Z,19.83
2022-10-05T15:18:57.325Z,19.62
2022-10-05T15:21:45.593Z,19.51
2022-10-05T15:24:30.031Z,19.43
2022-10-05T15:27:04.406Z,19.32
2022-10-05T15:29:49.827Z,19.31
2022-10-05T15:32:57.748Z,19.34
2022-10-05T15:35:41.219Z,19.29
2022-10-05T15:38:21.061Z,19.22
2022-10-05T15:40:58.675Z,19.21
2022-10-05T15:43:30.776Z,19.09
2022-10-05T15:46:04.401Z,19.09
2022-10-05T15:48:50.000Z,19.01
2022-10-05T15:51:34.786Z,18.86
2022-10-05T15:54:32.613Z,18.78
2022-10-05T15:57:21.045Z,18.69
2022-10-05T16:00:01.938Z,18.55
2022-10-05T16:02:31.482Z,18.42
2022-10-05T16:05:05.063Z,18.33
2022-10-05T16:08:00.081Z,18.15
2022-10-05T16:10:26.597Z,18.04
2022-10-05T16:13:29.936Z,17.88
2022-10-05T16:16:11.891Z,17.81
2022-10-05T16:18:56.737Z,17.84
2022-10-05T16:21:34.938Z,17.55
2022-10-05T16:24:42.984Z,17.18
2022-10-05T16:27:20.540Z,16.92
2022-10-05T16:30:04.379Z,16.67
2022-10-05T16:32:37.343Z,16.48
2022-10-05T16:35:17.328Z,16.34
2022-10-05T16:38:13.494Z,16.19
2022-10-05T16:40:50.935Z,15.77
2022-10-05T16:43:26.280Z,15.72
2022-10-05T16:46:10.058Z,15.63
2022-10-05T16:49:00.039Z,15.39
2022-10-05T16:51:45.299Z,15.16
2022-10-05T16:54:19.769Z,14.99
2022-10-05T16:56:55.582Z,14.85
2022-10-05T16:59:56.287Z,14.58
2022-10-05T17:02:41.225Z,14.33
2022-10-05T17:05:13.543Z,14.12
2022-10-05T17:08:09.118Z,14.11
2022-10-05T17:10:57.051Z,13.97
2022-10-05T17:13:28.659Z,13.85
2022-10-05T17:16:03.813Z,13.68
2022-10-05T17:18:52.231Z,13.55
2022-10-05T17:21:34.632Z,13.36
2022-10-05T17:24:11.665Z,13.37
2022-10-05T17:26:58.179Z,13.37
2022-10-05T17:29:51.260Z,13.27
2022-10-05T17:32:18.031Z,13.23
2022-10-05T17:35:02.773Z,13.34
2022-10-05T17:38:18.117Z,13.33
2022-10-05T17:41:04.193Z,13.17
2022-10-05T17:43:33.056Z,13.01
2022-10-05T17:46:01.654Z,12.82
2022-10-05T17:48:50.965Z,12.73
2022-10-05T17:51:48.361Z,12.58
2022-10-05T17:54:50.303Z,12.47
2022-10-05T17:57:24.184Z,12.36
2022-10-05T17:59:53.878Z,12.26
2022-10-05T18:02:36.825Z,12.24
2022-10-05T18:05:04.691Z,12.24
2022-10-05T18:07:35.540Z,12.20
2022-10-05T18:10:17.234Z,12.23
2022-10-05T18:12:48.452Z,12.19
2022-10-05T18:15:24.262Z,12.05
2022-10-05T18:18:00.855Z,11.99
2022-10-05T18:20:31.569Z,11.93
2022-10-05T18:23:06.181Z,12.00
2022-10-05T18:25:47.588Z,12.11
2022-10-05T18:28:39.754Z,12.08
2022-10-05T18:31:37.640Z,12.05
2022-10-05T18:34:26.581Z,11.95
2022-10-05T18:36:56.559Z,11.81
2022-10-05T18:39:41.312Z,11.70
2022-10-05T18:42:27.121Z,11.53
2022-10-05T18:45:02.296Z,11.43
2022-10-05T18:48:07.295Z,11.34
2022-10-05T18:50:46.892Z,11.25
2022-10-05T18:53:43.321Z,11.20
2022-10-05T18:56:23.205Z,11.12
2022-10-05T18:59:01.704Z,11.03
2022-10-05T19:01:58.220Z,10.99
2022-10-05T19:04:30.193Z,11.05
2022-10-05T19:07:16.906Z,11.01
2022-10-05T19:10:02.026Z,10.86
2022-10-05T19:12:47.155Z,10.67
2022-10-05T19:15:17.100Z,10.37
2022-10-05T19:18:04.740Z,10.28
2022-10-05T19:21:08.707Z,10.28
2022-10-05T19:23:45.851Z,10.34
2022-10-05T19:26:31.235Z,10.20
2022-10-05T19:29:47.668Z,10.00
2022-10-05T19:32:30.296Z,9.94
2022-10-05T19:35:03.440Z,9.80
2022-10-05T19:38:22.596Z,9.75
2022-10-05T19:41:14.058Z,9.80
2022-10-05T19:44:07.900Z,9.78
2022-10-05T19:46:50.806Z,9.77
2022-10-05T19:49:52.243Z,9.76
2022-10-05T19:52:22.096Z,9.70
2022-10-05T19:55:01.959Z,9.70
2022-10-05T19:57:29.058Z,9.70
2022-10-05T19:59:57.783Z,9.72
2022-10-05T20:02:27.245Z,9.81
2022-10-05T20:04:55.504Z,9.61
2022-10-05T20:07:22.985Z,9.52
2022-10-05T20:09:50.426Z,9.49
2022-10-05T20:12:16.796Z,9.48
2022-10-05T20:15:02.085Z,9.41
2022-10-05T20:17:47.834Z,9.28
2022-10-05T20:20:32.064Z,9.37
2022-10-05T20:23:25.002Z,9.29
2022-10-05T20:26:11.942Z,9.20
2022-10-05T20:28:38.497Z,9.09
2022-10-05T20:31:08.601Z,9.04
2022-10-05T20:33:35.479Z,9.00
2022-10-05T20:36:03.844Z,8.99
2022-10-05T20:38:31.503Z,8.97
2022-10-05T20:40:58.542Z,8.90
2022-10-05T20:43:24.909Z,8.85
2022-10-05T20:45:52.168Z,8.94
2022-10-05T20:48:20.000Z,9.01
2022-10-05T20:50:47.209Z,9.13
2022-10-05T20:53:13.623Z,9.01
2022-10-05T20:55:40.357Z,9.00
2022-10-05T20:58:08.832Z,8.87
2022-10-05T21:00:54.284Z,8.74
2022-10-05T21:03:20.746Z,8.67
2022-10-05T21:05:47.137Z,8.67
2022-10-05T21:08:14.336Z,8.57
2022-10-05T21:10:40.827Z,8.52
2022-10-05T21:13:07.152Z,8.48
2022-10-05T21:15:34.004Z,8.47
2022-10-05T21:18:00.324Z,8.46
2022-10-05T21:20:27.078Z,8.46
2022-10-05T21:22:53.392Z,8.27
2022-10-05T21:25:19.715Z,8.34
2022-10-05T21:27:48.946Z,8.39
2022-10-05T21:30:15.361Z,8.33
2022-10-05T21:32:44.440Z,8.36
2022-10-05T21:35:11.790Z,8.23
2022-10-05T21:37:38.148Z,8.12
2022-10-05T21:40:04.890Z,8.13
2022-10-05T21:42:31.834Z,8.03
2022-10-05T21:44:58.156Z,7.77
2022-10-05T21:47:25.449Z,7.61
2022-10-05T21:49:52.399Z,7.63
2022-10-05T21:52:18.909Z,7.69
2022-10-05T21:54:45.695Z,7.76
2022-10-05T21:57:13.052Z,7.74
2022-10-05T21:59:40.252Z,7.72
2022-10-05T22:02:06.573Z,7.77
2022-10-05T22:04:33.319Z,7.87
2022-10-05T22:06:59.651Z,7.99
2022-10-05T22:09:26.070Z,7.99
2022-10-05T22:11:52.946Z,7.88
2022-10-05T22:14:19.528Z,7.88
2022-10-05T22:16:46.000Z,7.86
2022-10-05T22:19:19.276Z,7.83
2022-10-05T22:21:45.689Z,7.75
2022-10-05T22:24:12.408Z,7.71
2022-10-05T22:26:41.735Z,7.68
2022-10-05T22:29:08.560Z,7.69
2022-10-05T22:31:35.720Z,7.62
2022-10-05T22:34:02.126Z,7.59
2022-10-05T22:36:29.056Z,7.59
2022-10-05T22:38:55.438Z,7.58
2022-10-05T22:41:21.840Z,7.59
2022-10-05T22:43:49.093Z,7.55
2022-10-05T22:46:15.895Z,7.53
2022-10-05T22:48:42.338Z,7.54
2022-10-05T22:51:09.199Z,7.54
2022-10-05T22:53:35.885Z,7.55
2022-10-05T22:56:09.967Z,7.56
2022-10-05T22:58:37.134Z,7.70
2022-10-05T23:01:05.919Z,7.80
2022-10-05T23:03:33.719Z,7.92
2022-10-05T23:06:03.477Z,8.05
2022-10-05T23:08:31.686Z,8.88
2022-10-05T23:11:02.915Z,9.32
2022-10-05T23:13:29.738Z,9.82
2022-10-05T23:15:56.616Z,9.90
2022-10-05T23:18:23.603Z,9.97
2022-10-05T23:20:56.151Z,10.06
2022-10-05T23:23:23.687Z,10.08
2022-10-05T23:25:50.203Z,10.10
2022-10-05T23:28:17.076Z,10.06
2022-10-05T23:30:43.567Z,10.05
2022-10-05T23:33:10.007Z,10.04
2022-10-05T23:35:36.883Z,10.02
2022-10-05T23:38:03.641Z,9.98
2022-10-05T23:40:30.372Z,9.98
2022-10-05T23:42:57.124Z,9.92
2022-10-05T23:45:24.000Z,9.91
2022-10-05T23:47:50.315Z,9.89
2022-10-05T23:50:17.347Z,9.90
2022-10-05T23:52:43.683Z,9.96
2022-10-05T23:55:10.295Z,9.93
2022-10-05T23:57:38.161Z,9.95
